createdAt,value
2018-07-03T00:01:09.257Z,16.90
2018-07-03T00:03:37.555Z,16.80
2018-07-03T00:06:05.973Z,16.80
2018-07-03T00:08:34.279Z,16.70
2018-07-03T00:11:02.571Z,16.70
2018-07-03T00:13:30.958Z,16.60
2018-07-03T00:15:59.272Z,16.60
2018-07-03T00:18:27.642Z,16.60
2018-07-03T00:20:56.149Z,16.50
2018-07-03T00:23:24.516Z,16.50
2018-07-03T00:25:52.861Z,16.40
2018-07-03T00:28:21.137Z,16.40
2018-07-03T00:30:49.420Z,16.30
2018-07-03T00:33:17.720Z,16.30
2018-07-03T00:35:46.039Z,16.30
2018-07-03T00:38:14.299Z,16.20
2018-07-03T00:40:42.606Z,16.20
2018-07-03T00:43:10.943Z,16.20
2018-07-03T00:45:39.293Z,16.10
2018-07-03T00:48:07.765Z,16.10
2018-07-03T00:50:36.099Z,16.00
2018-07-03T00:53:04.459Z,16.00
2018-07-03T00:55:32.996Z,16.00
2018-07-03T00:58:01.703Z,16.00
2018-07-03T01:00:33.191Z,16.00
2018-07-03T01:03:02.230Z,16.00
2018-07-03T01:05:30.529Z,15.90
2018-07-03T01:07:59.062Z,15.90
2018-07-03T01:10:27.706Z,15.80
2018-07-03T01:12:56.622Z,15.70
2018-07-03T01:15:25.768Z,15.70
2018-07-03T01:17:54.113Z,15.60
2018-07-03T01:20:22.493Z,15.60
2018-07-03T01:22:50.864Z,15.60
2018-07-03T01:25:19.193Z,15.60
2018-07-03T01:27:47.508Z,15.50
2018-07-03T01:30:15.781Z,15.60
2018-07-03T01:32:44.073Z,15.60
2018-07-03T01:35:12.452Z,15.50
2018-07-03T01:37:40.870Z,15.50
2018-07-03T01:40:09.277Z,15.50
2018-07-03T01:42:37.590Z,15.40
2018-07-03T01:45:05.922Z,15.40
2018-07-03T01:47:34.236Z,15.40
2018-07-03T01:50:02.620Z,15.40
2018-07-03T01:52:30.994Z,15.30
2018-07-03T01:54:59.288Z,15.30
2018-07-03T01:57:27.600Z,15.30
2018-07-03T01:59:55.907Z,15.30
2018-07-03T02:02:24.202Z,15.20
2018-07-03T02:04:52.503Z,15.20
2018-07-03T02:07:20.822Z,15.10
2018-07-03T02:09:49.138Z,15.10
2018-07-03T02:12:17.431Z,15.10
2018-07-03T02:14:45.717Z,15.10
2018-07-03T02:17:14.302Z,15.00
2018-07-03T02:19:42.677Z,15.00
2018-07-03T02:22:10.981Z,15.00
2018-07-03T02:24:39.311Z,15.00
2018-07-03T02:29:35.687Z,14.90
2018-07-03T02:32:04.023Z,14.80
2018-07-03T02:34:32.401Z,14.70
2018-07-03T02:37:00.668Z,14.70
2018-07-03T02:39:28.985Z,14.60
2018-07-03T02:41:57.308Z,14.60
2018-07-03T02:44:25.646Z,14.60
2018-07-03T02:46:53.966Z,14.60
2018-07-03T02:49:22.349Z,14.50
2018-07-03T02:51:50.810Z,14.50
2018-07-03T02:54:19.225Z,14.60
2018-07-03T02:56:47.513Z,14.50
2018-07-03T02:59:15.916Z,14.50
2018-07-03T03:01:44.234Z,14.40
2018-07-03T03:04:12.544Z,14.40
2018-07-03T03:06:40.923Z,14.40
2018-07-03T03:09:11.121Z,14.40
2018-07-03T03:11:39.433Z,14.40
2018-07-03T03:14:07.763Z,14.30
2018-07-03T03:16:36.152Z,14.30
2018-07-03T03:19:04.463Z,14.30
2018-07-03T03:21:32.797Z,14.30
2018-07-03T03:24:01.225Z,14.30
2018-07-03T03:26:29.616Z,14.30
2018-07-03T03:28:58.105Z,14.20
2018-07-03T03:31:26.533Z,14.20
2018-07-03T03:33:54.914Z,14.20
2018-07-03T03:36:23.214Z,14.20
2018-07-03T03:38:51.574Z,14.20
2018-07-03T03:41:19.970Z,14.20
2018-07-03T03:43:48.291Z,14.20
2018-07-03T03:46:16.726Z,14.10
2018-07-03T03:48:45.030Z,14.20
2018-07-03T03:51:13.364Z,14.20
2018-07-03T03:53:41.743Z,14.20
2018-07-03T03:56:10.051Z,14.30
2018-07-03T03:58:38.428Z,14.30
2018-07-03T04:01:06.772Z,14.20
2018-07-03T04:03:35.124Z,14.30
2018-07-03T04:06:03.470Z,14.30
2018-07-03T04:08:31.942Z,14.30
2018-07-03T04:11:00.304Z,14.20
2018-07-03T04:13:28.552Z,14.20
2018-07-03T04:15:56.877Z,14.20
2018-07-03T04:18:29.656Z,14.20
2018-07-03T04:20:57.940Z,14.30
2018-07-03T04:23:26.385Z,14.20
2018-07-03T04:25:54.722Z,14.20
2018-07-03T04:28:23.072Z,14.20
2018-07-03T04:30:51.631Z,14.30
2018-07-03T04:33:20.103Z,14.30
2018-07-03T04:35:48.484Z,14.40
2018-07-03T04:38:16.842Z,14.40
2018-07-03T04:40:45.199Z,14.50
2018-07-03T04:43:13.564Z,14.50
2018-07-03T04:45:42.310Z,14.50
2018-07-03T04:48:10.656Z,14.60
2018-07-03T04:50:39.028Z,14.60
2018-07-03T04:53:07.542Z,14.60
2018-07-03T04:55:35.900Z,14.60
2018-07-03T04:58:04.290Z,14.70
2018-07-03T05:00:32.633Z,14.80
2018-07-03T05:03:01.229Z,14.90
2018-07-03T05:10:51.118Z,15.00
2018-07-03T05:13:19.434Z,15.10
2018-07-03T05:15:47.717Z,15.10
2018-07-03T05:18:16.029Z,15.20
2018-07-03T05:23:12.440Z,15.30
2018-07-03T05:25:40.768Z,15.30
2018-07-03T05:28:09.077Z,15.40
2018-07-03T05:30:37.431Z,15.50
2018-07-03T05:33:06.182Z,15.60
2018-07-03T05:35:34.648Z,15.70
2018-07-03T05:38:02.892Z,15.80
2018-07-03T05:40:31.398Z,15.90
2018-07-03T05:42:59.803Z,16.00
2018-07-03T05:45:28.136Z,16.00
2018-07-03T05:47:56.489Z,16.20
2018-07-03T05:50:24.786Z,16.20
2018-07-03T05:52:53.211Z,16.30
2018-07-03T05:55:21.602Z,16.50
2018-07-03T05:57:49.888Z,16.50
2018-07-03T06:02:46.247Z,16.70
2018-07-03T06:05:14.655Z,16.80
2018-07-03T06:07:42.927Z,16.80
2018-07-03T06:10:11.243Z,16.90
2018-07-03T06:12:39.638Z,17.00
2018-07-03T06:15:08.031Z,17.10
2018-07-03T06:17:36.448Z,17.20
2018-07-03T06:20:05.505Z,17.20
2018-07-03T06:22:33.948Z,17.30
2018-07-03T06:25:02.273Z,17.40
2018-07-03T06:27:30.652Z,17.50
2018-07-03T06:29:58.925Z,17.60
2018-07-03T06:32:27.288Z,17.70
2018-07-03T06:34:55.583Z,17.70
2018-07-03T06:37:23.923Z,17.80
2018-07-03T06:39:52.390Z,17.80
2018-07-03T06:42:20.569Z,17.90
2018-07-03T06:44:48.891Z,18.00
2018-07-03T06:47:17.278Z,18.10
2018-07-03T06:49:45.759Z,18.10
2018-07-03T06:52:14.110Z,18.20
2018-07-03T06:54:42.429Z,18.20
2018-07-03T06:57:11.047Z,18.20
2018-07-03T06:59:39.332Z,18.30
2018-07-03T07:02:07.621Z,18.40
2018-07-03T07:07:03.975Z,18.50
2018-07-03T07:09:32.514Z,18.60
2018-07-03T07:12:00.736Z,18.70
2018-07-03T07:14:29.055Z,18.70
2018-07-03T07:16:57.340Z,18.80
2018-07-03T07:19:25.639Z,18.90
2018-07-03T07:21:53.935Z,19.00
2018-07-03T07:24:22.209Z,19.10
2018-07-03T07:26:50.494Z,19.10
2018-07-03T07:29:18.811Z,19.20
2018-07-03T07:31:47.560Z,19.30
2018-07-03T07:34:15.845Z,19.40
2018-07-03T07:36:44.208Z,19.40
2018-07-03T07:39:13.119Z,19.50
2018-07-03T07:41:42.104Z,19.60
2018-07-03T07:44:10.452Z,19.70
2018-07-03T07:46:38.803Z,19.80
2018-07-03T07:49:07.380Z,19.90
2018-07-03T07:51:35.721Z,20.00
2018-07-03T07:54:04.057Z,20.10
2018-07-03T07:56:32.500Z,20.20
2018-07-03T07:59:00.843Z,20.30
2018-07-03T08:01:29.204Z,20.40
2018-07-03T08:03:57.529Z,20.50
2018-07-03T08:06:25.855Z,20.70
2018-07-03T08:08:54.212Z,20.80
2018-07-03T08:11:23.100Z,21.00
2018-07-03T08:13:51.656Z,21.10
2018-07-03T08:16:19.987Z,21.30
2018-07-03T08:18:48.357Z,21.40
2018-07-03T08:21:16.676Z,21.50
2018-07-03T08:23:44.998Z,21.60
2018-07-03T08:26:13.336Z,21.50
2018-07-03T08:28:41.706Z,21.60
2018-07-03T08:31:09.987Z,21.60
2018-07-03T08:33:38.327Z,21.70
2018-07-03T08:36:06.644Z,21.80
2018-07-03T08:38:35.160Z,21.90
2018-07-03T08:41:03.494Z,21.90
2018-07-03T08:43:31.794Z,21.80
2018-07-03T08:46:00.149Z,21.90
2018-07-03T08:48:28.539Z,21.90
2018-07-03T08:50:57.441Z,22.00
2018-07-03T08:53:25.762Z,22.10
2018-07-03T08:55:54.130Z,22.20
2018-07-03T08:58:22.501Z,22.30
2018-07-03T09:00:51.007Z,22.30
2018-07-03T09:03:19.276Z,22.30
2018-07-03T09:05:47.715Z,22.30
2018-07-03T09:08:16.045Z,22.30
